Denton, United Kingdom
Current Conditions -  °F | °C
As of 4:20 PM on Thursday 23 Oct 2014 (Local Time) from EGCC Reporting Station
Broken Clouds Broken Clouds  
Wind Chill: 59°   Ceiling: 2800
Heat Index: 59°   Visibility: 6mi
Dew Point: 55°   Wind: 13mph
Humidity: 88%   Direction: 200°SSW
Pressure: 29.91"   Gusts: NA
Location:  53.46°N, 2.12°W
Report Text: EGCC 231520Z 20011KT 9999 FEW023 BKN028 15/13 Q1013 NOSIG
Loading
Personal Weather Stations






























Interactive Weather Map
Tropical Storm Tracking
New forecast layout! Learn more

10-Day Weather Forecast

Advertisements
Track Severe Weather on mobile